createdAt,value
2023-04-02T00:00:10.374Z,-3.3
2023-04-02T00:04:04.681Z,-3.3
2023-04-02T00:08:02.258Z,-3.5
2023-04-02T00:12:14.245Z,-3.5
2023-04-02T00:16:02.441Z,-3.5
2023-04-02T00:20:05.403Z,-3.7
2023-04-02T00:24:01.894Z,-3.7
2023-04-02T00:28:02.167Z,-3.8
2023-04-02T00:32:01.154Z,-3.8
2023-04-02T00:36:05.202Z,-3.8
2023-04-02T00:40:01.495Z,-3.9
2023-04-02T00:44:01.742Z,-3.9
2023-04-02T00:48:10.412Z,-4
2023-04-02T00:52:01.827Z,-4
2023-04-02T00:56:01.555Z,-4
2023-04-02T01:00:06.840Z,-4.1
2023-04-02T01:04:01.491Z,-4.1
2023-04-02T01:08:06.290Z,-4.3
2023-04-02T01:12:10.458Z,-4.3
2023-04-02T01:16:04.350Z,-4.3
2023-04-02T01:20:10.434Z,-4.4
2023-04-02T01:24:03.360Z,-4.4
2023-04-02T01:28:05.089Z,-4.5
2023-04-02T01:32:02.780Z,-4.5
2023-04-02T01:36:05.119Z,-4.5
2023-04-02T01:40:07.021Z,-4.7
2023-04-02T01:44:02.602Z,-4.7
2023-04-02T01:48:01.821Z,-4.7
2023-04-02T01:52:00.753Z,-4.7
2023-04-02T01:56:01.190Z,-4.7
2023-04-02T02:00:01.453Z,-4.9
2023-04-02T02:04:01.093Z,-4.9
2023-04-02T02:08:01.450Z,-5
2023-04-02T02:12:01.934Z,-5
2023-04-02T02:16:02.464Z,-5
2023-04-02T02:20:05.645Z,-5.1
2023-04-02T02:24:01.218Z,-5.1
2023-04-02T02:28:05.282Z,-5.2
2023-04-02T02:32:01.916Z,-5.2
2023-04-02T02:36:03.297Z,-5.2
2023-04-02T02:40:03.372Z,-5.2
2023-04-02T02:44:03.719Z,-5.2
2023-04-02T02:48:01.612Z,-5.4
2023-04-02T02:52:05.519Z,-5.4
2023-04-02T02:56:01.175Z,-5.4
2023-04-02T03:00:01.408Z,-5.5
2023-04-02T03:04:01.092Z,-5.5
2023-04-02T03:08:02.307Z,-5.6
2023-04-02T03:12:04.914Z,-5.6
2023-04-02T03:16:04.499Z,-5.6
2023-04-02T03:20:05.544Z,-5.7
2023-04-02T03:24:02.579Z,-5.7
2023-04-02T03:28:03.048Z,-5.7
2023-04-02T03:32:04.703Z,-5.7
2023-04-02T03:36:04.296Z,-5.7
2023-04-02T03:40:05.348Z,-5.8
2023-04-02T03:44:02.449Z,-5.8
2023-04-02T03:48:03.426Z,-5.9
2023-04-02T03:52:03.567Z,-5.9
2023-04-02T03:56:01.344Z,-5.9
2023-04-02T04:00:04.114Z,-6
2023-04-02T04:04:04.853Z,-6
2023-04-02T04:08:02.298Z,-6.1
2023-04-02T04:12:07.916Z,-6.1
2023-04-02T04:16:04.066Z,-6.1
2023-04-02T04:20:07.614Z,-6.2
2023-04-02T04:24:02.945Z,-6.2
2023-04-02T04:28:04.530Z,-6.3
2023-04-02T04:32:12.172Z,-6.3
2023-04-02T04:36:02.034Z,-6.3
2023-04-02T04:40:04.798Z,-6.4
2023-04-02T04:44:05.213Z,-6.4
2023-04-02T04:48:02.058Z,-6.4
2023-04-02T04:52:05.832Z,-6.4
2023-04-02T04:56:12.448Z,-6.4
2023-04-02T05:00:06.046Z,-6.6
2023-04-02T05:04:03.549Z,-6.6
2023-04-02T05:08:05.170Z,-6.6
2023-04-02T05:12:04.513Z,-6.6
2023-04-02T05:16:03.963Z,-6.6
2023-04-02T05:20:08.779Z,-6.7
2023-04-02T05:24:10.346Z,-6.7
2023-04-02T05:28:04.387Z,-6.8
2023-04-02T05:32:03.739Z,-6.8
2023-04-02T05:36:02.484Z,-6.8
2023-04-02T05:40:05.665Z,-6.8
2023-04-02T05:44:05.023Z,-6.8
2023-04-02T05:48:02.625Z,-6.6
2023-04-02T05:52:02.748Z,-6.6
2023-04-02T05:56:02.675Z,-6.6
2023-04-02T06:00:04.841Z,-6.4
2023-04-02T06:04:05.454Z,-6.4
2023-04-02T06:08:05.538Z,-6.1
2023-04-02T06:12:03.815Z,-6.1
2023-04-02T06:16:01.252Z,-6.1
2023-04-02T06:20:01.597Z,-5.6
2023-04-02T06:24:02.365Z,-5.6
2023-04-02T06:28:03.186Z,-4.9
2023-04-02T06:32:01.124Z,-4.9
2023-04-02T06:36:00.796Z,-4.9
2023-04-02T06:40:01.957Z,-4.3
2023-04-02T06:44:03.306Z,-4.3
2023-04-02T06:48:02.652Z,-3.6
2023-04-02T06:52:02.899Z,-3.6
2023-04-02T06:56:03.703Z,-3.6
2023-04-02T07:00:00.765Z,-2.8
2023-04-02T07:04:00.772Z,-2.8
2023-04-02T07:08:00.653Z,-2.3
2023-04-02T07:12:00.681Z,-2.3
2023-04-02T07:16:00.758Z,-2.3
2023-04-02T07:20:00.682Z,-1.5
2023-04-02T07:24:00.675Z,-1.5
2023-04-02T07:28:00.779Z,-0.8
2023-04-02T07:32:00.627Z,-0.8
2023-04-02T07:36:00.805Z,-0.8
2023-04-02T07:40:00.629Z,0
2023-04-02T07:44:00.646Z,0
2023-04-02T07:48:03.715Z,0.7
2023-04-02T07:52:00.935Z,0.7
2023-04-02T07:56:01.938Z,0.7
2023-04-02T08:00:00.678Z,1.6
2023-04-02T08:04:01.245Z,1.6
2023-04-02T08:08:00.654Z,2.2
2023-04-02T08:12:00.713Z,2.2
2023-04-02T08:16:01.258Z,2.2
2023-04-02T08:20:00.825Z,2.5
2023-04-02T08:24:01.017Z,2.5
2023-04-02T08:28:01.352Z,2.8
2023-04-02T08:32:01.118Z,2.8
2023-04-02T08:36:00.710Z,2.8
2023-04-02T08:40:00.701Z,3
2023-04-02T08:44:07.893Z,3
2023-04-02T08:48:02.260Z,3.4
2023-04-02T08:52:00.727Z,3.4
2023-04-02T08:56:07.605Z,3.4
2023-04-02T09:00:06.631Z,3.7
2023-04-02T09:04:02.392Z,3.7
2023-04-02T09:08:01.977Z,4
2023-04-02T09:12:03.202Z,4
2023-04-02T09:16:02.916Z,4
2023-04-02T09:20:01.858Z,4.2
2023-04-02T09:24:01.896Z,4.2
2023-04-02T09:28:01.381Z,4.3
2023-04-02T09:32:06.466Z,4.3
2023-04-02T09:36:00.620Z,4.3
2023-04-02T09:40:10.543Z,4.6
2023-04-02T09:44:10.495Z,4.6
2023-04-02T09:48:01.353Z,4.9
2023-04-02T09:52:05.679Z,4.9
2023-04-02T09:56:09.106Z,4.9
2023-04-02T10:00:21.774Z,5
2023-04-02T10:04:02.674Z,5
2023-04-02T10:08:10.418Z,5.1
2023-04-02T10:12:02.014Z,5.1
2023-04-02T10:16:02.857Z,5.1
2023-04-02T10:20:05.445Z,5.4
2023-04-02T10:24:02.079Z,5.4
2023-04-02T10:28:06.040Z,5.6
2023-04-02T10:32:04.212Z,5.6
2023-04-02T10:36:05.900Z,5.6
2023-04-02T10:40:09.561Z,6
2023-04-02T10:44:17.031Z,6
2023-04-02T10:48:06.689Z,6.3
2023-04-02T10:52:06.098Z,6.3
2023-04-02T10:56:04.560Z,6.3
2023-04-02T11:00:07.145Z,6.7
2023-04-02T11:04:05.042Z,6.7
2023-04-02T11:08:03.296Z,7.1
2023-04-02T11:12:01.672Z,7.1
2023-04-02T11:16:00.808Z,7.1
2023-04-02T11:20:10.473Z,7.5
2023-04-02T11:24:01.901Z,7.5
2023-04-02T11:28:10.358Z,7.6
2023-04-02T11:32:10.324Z,7.6
2023-04-02T11:36:01.328Z,7.6
2023-04-02T11:40:01.196Z,8.1
2023-04-02T11:44:00.922Z,8.1
2023-04-02T11:48:11.205Z,8.4
2023-04-02T11:52:11.187Z,8.4
2023-04-02T11:56:10.408Z,8.4
2023-04-02T12:00:11.994Z,8.7
2023-04-02T12:04:07.513Z,8.7
2023-04-02T12:08:09.146Z,9
2023-04-02T12:12:10.380Z,9
2023-04-02T12:16:01.539Z,9
2023-04-02T12:20:05.680Z,9.4
2023-04-02T12:24:02.344Z,9.4
2023-04-02T12:28:03.663Z,9.6
2023-04-02T12:32:02.948Z,9.6
2023-04-02T12:36:01.360Z,9.6
2023-04-02T12:40:06.010Z,10
2023-04-02T12:44:01.392Z,10
2023-04-02T12:48:02.176Z,10.2
2023-04-02T12:52:01.489Z,10.2
2023-04-02T12:56:00.817Z,10.2
2023-04-02T13:00:05.017Z,10.4
2023-04-02T13:04:01.931Z,10.4
2023-04-02T13:08:00.918Z,10.6
2023-04-02T13:12:00.934Z,10.6
2023-04-02T13:16:02.599Z,10.6
2023-04-02T13:20:10.374Z,10.7
2023-04-02T13:24:00.702Z,10.7
2023-04-02T13:28:01.005Z,11
2023-04-02T13:32:01.756Z,11
2023-04-02T13:36:00.858Z,11
2023-04-02T13:40:00.639Z,11
2023-04-02T13:44:01.830Z,11
2023-04-02T13:48:01.008Z,11.1
2023-04-02T13:52:03.973Z,11.1
2023-04-02T13:56:00.876Z,11.1
2023-04-02T14:00:00.870Z,11.3
2023-04-02T14:04:01.503Z,11.3
2023-04-02T14:08:05.788Z,11.1
2023-04-02T14:12:04.113Z,11.1
2023-04-02T14:16:09.215Z,11.1
2023-04-02T14:20:11.048Z,11.2
2023-04-02T14:24:06.275Z,11.2
2023-04-02T14:28:06.582Z,11.1
2023-04-02T14:32:03.209Z,11.1
2023-04-02T14:36:05.604Z,11.1
2023-04-02T14:40:05.392Z,10.6
2023-04-02T14:44:02.193Z,10.6
2023-04-02T14:48:04.391Z,10.9
2023-04-02T14:52:04.373Z,10.9
2023-04-02T14:56:02.494Z,10.9
2023-04-02T15:00:03.007Z,10.9
2023-04-02T15:04:02.163Z,10.9
2023-04-02T15:08:03.850Z,10.8
2023-04-02T15:12:03.072Z,10.8
2023-04-02T15:16:05.158Z,10.8
2023-04-02T15:20:10.393Z,10.5
2023-04-02T15:24:03.500Z,10.5
2023-04-02T15:28:05.085Z,10.5
2023-04-02T15:32:05.012Z,10.5
2023-04-02T15:36:06.290Z,10.5
2023-04-02T15:40:06.958Z,10.5
2023-04-02T15:44:03.838Z,10.5
2023-04-02T15:48:07.444Z,10.3
2023-04-02T15:52:04.799Z,10.3
2023-04-02T15:56:06.749Z,10.3
2023-04-02T16:00:10.611Z,10.2
2023-04-02T16:04:10.660Z,10.2
2023-04-02T16:08:09.155Z,10.1
2023-04-02T16:12:10.370Z,10.1
2023-04-02T16:16:03.340Z,10.1
2023-04-02T16:20:09.542Z,10.1
2023-04-02T16:24:00.880Z,10.1
2023-04-02T16:28:06.267Z,10
2023-04-02T16:32:04.102Z,10
2023-04-02T16:36:07.427Z,10
2023-04-02T16:40:06.597Z,9.8
2023-04-02T16:44:04.959Z,9.8
2023-04-02T16:48:07.608Z,9.5
2023-04-02T16:52:07.786Z,9.5
2023-04-02T16:56:07.703Z,9.5
2023-04-02T17:00:05.923Z,9.3
2023-04-02T17:04:08.801Z,9.3
2023-04-02T17:08:10.286Z,9
2023-04-02T17:12:03.670Z,9
2023-04-02T17:16:04.348Z,9
2023-04-02T17:20:00.788Z,8.6
2023-04-02T17:24:05.479Z,8.6
2023-04-02T17:28:00.806Z,8.2
2023-04-02T17:32:01.872Z,8.2
2023-04-02T17:36:10.206Z,8.2
2023-04-02T17:40:05.725Z,7.8
2023-04-02T17:44:04.318Z,7.8
2023-04-02T17:48:02.309Z,7.3
2023-04-02T17:52:03.717Z,7.3
2023-04-02T17:56:06.386Z,7.3
2023-04-02T18:00:07.768Z,6.8
2023-04-02T18:04:06.938Z,6.8
2023-04-02T18:08:11.416Z,6.3
2023-04-02T18:12:04.897Z,6.3
2023-04-02T18:16:10.245Z,6.3
2023-04-02T18:20:07.474Z,5.9
2023-04-02T18:24:09.565Z,5.9
2023-04-02T18:28:07.944Z,5.4
2023-04-02T18:32:09.880Z,5.4
2023-04-02T18:36:04.464Z,5.4
2023-04-02T18:40:09.024Z,4.9
2023-04-02T18:44:06.889Z,4.9
2023-04-02T18:48:06.051Z,4.4
2023-04-02T18:52:01.515Z,4.4
2023-04-02T18:56:03.202Z,4.4
2023-04-02T19:00:03.424Z,4
2023-04-02T19:04:03.097Z,4
2023-04-02T19:08:02.981Z,3.6
2023-04-02T19:12:01.577Z,3.6
2023-04-02T19:16:08.556Z,3.6
2023-04-02T19:20:07.140Z,2.9
2023-04-02T19:24:05.957Z,2.9
2023-04-02T19:28:06.206Z,2.6
2023-04-02T19:32:05.116Z,2.6
2023-04-02T19:36:06.013Z,2.6
2023-04-02T19:40:10.604Z,2.3
2023-04-02T19:44:01.004Z,2.3
2023-04-02T19:48:02.877Z,2
2023-04-02T19:52:00.788Z,2
2023-04-02T19:56:01.144Z,2
2023-04-02T20:00:00.785Z,1.6
2023-04-02T20:04:00.716Z,1.6
2023-04-02T20:08:00.900Z,1.3
2023-04-02T20:12:00.598Z,1.3
2023-04-02T20:16:01.450Z,1.3
2023-04-02T20:20:00.703Z,1
2023-04-02T20:24:00.794Z,1
2023-04-02T20:28:02.737Z,0.8
2023-04-02T20:32:00.988Z,0.8
2023-04-02T20:36:01.499Z,0.8
2023-04-02T20:40:01.017Z,0.5
2023-04-02T20:44:01.077Z,0.5
2023-04-02T20:48:01.149Z,0.2
2023-04-02T20:52:00.894Z,0.2
2023-04-02T20:56:01.277Z,0.2
2023-04-02T21:00:03.173Z,0
2023-04-02T21:04:02.328Z,0
2023-04-02T21:08:00.638Z,-0.3
2023-04-02T21:12:00.612Z,-0.3
2023-04-02T21:16:00.954Z,-0.3
2023-04-02T21:20:01.196Z,-0.5
2023-04-02T21:24:01.918Z,-0.5
2023-04-02T21:28:00.668Z,-0.8
2023-04-02T21:32:03.521Z,-0.8
2023-04-02T21:36:04.062Z,-0.8
2023-04-02T21:40:00.627Z,-1
2023-04-02T21:44:02.195Z,-1
2023-04-02T21:48:00.611Z,-1.2
2023-04-02T21:52:00.885Z,-1.2
2023-04-02T21:56:01.411Z,-1.2
2023-04-02T22:00:00.750Z,-1.3
2023-04-02T22:04:02.346Z,-1.3
2023-04-02T22:08:00.705Z,-1.3
2023-04-02T22:12:01.348Z,-1.3
2023-04-02T22:16:01.688Z,-1.3
2023-04-02T22:20:00.714Z,-1.5
2023-04-02T22:24:01.328Z,-1.5
2023-04-02T22:28:00.628Z,-1.7
2023-04-02T22:32:00.828Z,-1.7
2023-04-02T22:36:00.934Z,-1.7
2023-04-02T22:40:00.669Z,-1.8
2023-04-02T22:44:01.193Z,-1.8
2023-04-02T22:48:01.078Z,-2
2023-04-02T22:52:00.718Z,-2
2023-04-02T22:56:02.081Z,-2
2023-04-02T23:00:00.561Z,-2.2
2023-04-02T23:04:00.951Z,-2.2
2023-04-02T23:08:00.602Z,-2.4
2023-04-02T23:12:00.709Z,-2.4
2023-04-02T23:16:01.266Z,-2.4
2023-04-02T23:20:00.696Z,-2.5
2023-04-02T23:24:00.553Z,-2.5
2023-04-02T23:28:00.723Z,-2.8
2023-04-02T23:32:00.614Z,-2.8
2023-04-02T23:36:05.251Z,-2.8
2023-04-02T23:40:00.657Z,-2.8
2023-04-02T23:44:01.157Z,-2.8
2023-04-02T23:48:00.651Z,-3.1
2023-04-02T23:52:00.799Z,-3.1
2023-04-02T23:56:00.649Z,-3.1
